Mc Grann, Pennsylvania
Current Conditions -  °F | °C
As of 3:15 PM on Wednesday 26 Nov 2014 (Local Time) from KBTP Reporting Station
Overcast Overcast  
Wind Chill: 26°   Ceiling: 600
Heat Index: 32°   Visibility: 1.7mi
Dew Point: 30°   Wind: 6mph
Humidity: 93%   Direction: 20°NNE
Pressure: 30.01"   Gusts: NA
Location:  40.7796°N, 79.5234°W
Report Text: KBTP 262015Z AUTO 02005KT 1 3/4SM OVC006 00/M01 A3001 RMK AO1
Loading
Personal Weather Stations






























Interactive Weather Map New forecast layout! Learn more

10-Day Weather Forecast

Advertisements
Track Severe Weather on mobile